sensor_id;sensor_type;location;lat;lon;timestamp;temperature;humidity
18024;DHT22;9137;50.960;3.118;2023-06-22T00:01:13;19.10;99.90
18024;DHT22;9137;50.960;3.118;2023-06-22T00:03:40;19.10;99.90
18024;DHT22;9137;50.960;3.118;2023-06-22T00:06:07;19.10;99.90
18024;DHT22;9137;50.960;3.118;2023-06-22T00:08:34;19.00;99.90
18024;DHT22;9137;50.960;3.118;2023-06-22T00:11:01;18.90;99.90
18024;DHT22;9137;50.960;3.118;2023-06-22T00:13:28;18.90;99.90
18024;DHT22;9137;50.960;3.118;2023-06-22T00:15:54;18.90;99.90
18024;DHT22;9137;50.960;3.118;2023-06-22T00:18:23;18.80;99.90
18024;DHT22;9137;50.960;3.118;2023-06-22T00:20:54;18.80;99.90
18024;DHT22;9137;50.960;3.118;2023-06-22T00:23:23;18.80;99.90
18024;DHT22;9137;50.960;3.118;2023-06-22T00:25:50;18.80;99.90
18024;DHT22;9137;50.960;3.118;2023-06-22T00:28:17;18.80;99.90
18024;DHT22;9137;50.960;3.118;2023-06-22T00:30:44;18.80;99.90
18024;DHT22;9137;50.960;3.118;2023-06-22T00:33:11;18.70;99.90
18024;DHT22;9137;50.960;3.118;2023-06-22T00:35:40;18.70;99.90
18024;DHT22;9137;50.960;3.118;2023-06-22T00:38:07;18.70;99.90
18024;DHT22;9137;50.960;3.118;2023-06-22T00:40:34;18.70;99.90
18024;DHT22;9137;50.960;3.118;2023-06-22T00:43:01;18.70;99.90
18024;DHT22;9137;50.960;3.118;2023-06-22T00:45:29;18.70;99.90
18024;DHT22;9137;50.960;3.118;2023-06-22T00:47:57;18.60;99.90
18024;DHT22;9137;50.960;3.118;2023-06-22T00:50:26;18.60;99.90
18024;DHT22;9137;50.960;3.118;2023-06-22T00:52:56;18.60;99.90
18024;DHT22;9137;50.960;3.118;2023-06-22T00:55:24;18.70;99.90
18024;DHT22;9137;50.960;3.118;2023-06-22T00:57:52;18.70;99.90
18024;DHT22;9137;50.960;3.118;2023-06-22T01:00:21;18.60;99.90
18024;DHT22;9137;50.960;3.118;2023-06-22T01:02:51;18.60;99.90
18024;DHT22;9137;50.960;3.118;2023-06-22T01:05:19;18.60;99.90
18024;DHT22;9137;50.960;3.118;2023-06-22T01:07:56;18.60;99.90
18024;DHT22;9137;50.960;3.118;2023-06-22T01:10:28;18.60;99.90
18024;DHT22;9137;50.960;3.118;2023-06-22T01:13:02;18.60;99.90
18024;DHT22;9137;50.960;3.118;2023-06-22T01:15:34;18.60;99.90
18024;DHT22;9137;50.960;3.118;2023-06-22T01:18:04;18.60;99.90
18024;DHT22;9137;50.960;3.118;2023-06-22T01:20:32;18.60;99.90
18024;DHT22;9137;50.960;3.118;2023-06-22T01:23:09;18.60;99.90
18024;DHT22;9137;50.960;3.118;2023-06-22T01:25:45;18.50;99.90
18024;DHT22;9137;50.960;3.118;2023-06-22T01:28:24;18.50;99.90
18024;DHT22;9137;50.960;3.118;2023-06-22T01:30:54;18.50;99.90
18024;DHT22;9137;50.960;3.118;2023-06-22T01:33:30;18.50;99.90
18024;DHT22;9137;50.960;3.118;2023-06-22T01:35:58;18.50;99.90
18024;DHT22;9137;50.960;3.118;2023-06-22T01:38:27;18.50;99.90
18024;DHT22;9137;50.960;3.118;2023-06-22T01:40:56;18.50;99.90
18024;DHT22;9137;50.960;3.118;2023-06-22T01:43:24;18.40;99.90
18024;DHT22;9137;50.960;3.118;2023-06-22T01:45:53;18.40;99.90
18024;DHT22;9137;50.960;3.118;2023-06-22T01:48:21;18.40;99.90
18024;DHT22;9137;50.960;3.118;2023-06-22T01:50:49;18.40;99.90
18024;DHT22;9137;50.960;3.118;2023-06-22T01:53:16;18.40;99.90
18024;DHT22;9137;50.960;3.118;2023-06-22T01:55:43;18.30;99.90
18024;DHT22;9137;50.960;3.118;2023-06-22T01:58:10;18.30;99.90
18024;DHT22;9137;50.960;3.118;2023-06-22T02:00:38;18.20;99.90
18024;DHT22;9137;50.960;3.118;2023-06-22T02:03:10;18.20;99.90
18024;DHT22;9137;50.960;3.118;2023-06-22T02:05:42;18.20;99.90
18024;DHT22;9137;50.960;3.118;2023-06-22T02:08:11;18.20;99.90
18024;DHT22;9137;50.960;3.118;2023-06-22T02:10:40;18.20;99.90
18024;DHT22;9137;50.960;3.118;2023-06-22T02:13:09;18.10;99.90
18024;DHT22;9137;50.960;3.118;2023-06-22T02:15:37;18.10;99.90
18024;DHT22;9137;50.960;3.118;2023-06-22T02:18:04;18.10;99.90
18024;DHT22;9137;50.960;3.118;2023-06-22T02:20:32;18.10;99.90
18024;DHT22;9137;50.960;3.118;2023-06-22T02:22:59;18.10;99.90
18024;DHT22;9137;50.960;3.118;2023-06-22T02:25:26;18.10;99.90
18024;DHT22;9137;50.960;3.118;2023-06-22T02:27:53;18.10;99.90
18024;DHT22;9137;50.960;3.118;2023-06-22T02:30:20;18.10;99.90
18024;DHT22;9137;50.960;3.118;2023-06-22T02:32:47;18.00;99.90
18024;DHT22;9137;50.960;3.118;2023-06-22T02:35:13;17.90;99.90
18024;DHT22;9137;50.960;3.118;2023-06-22T02:37:42;17.90;99.90
18024;DHT22;9137;50.960;3.118;2023-06-22T02:40:09;17.90;99.90
18024;DHT22;9137;50.960;3.118;2023-06-22T02:42:37;17.80;99.90
18024;DHT22;9137;50.960;3.118;2023-06-22T02:45:04;17.80;99.90
18024;DHT22;9137;50.960;3.118;2023-06-22T02:47:40;17.80;99.90
18024;DHT22;9137;50.960;3.118;2023-06-22T02:50:25;17.70;99.90
18024;DHT22;9137;50.960;3.118;2023-06-22T02:52:54;17.70;99.90
18024;DHT22;9137;50.960;3.118;2023-06-22T02:55:21;17.70;99.90
18024;DHT22;9137;50.960;3.118;2023-06-22T02:57:49;17.60;99.90
18024;DHT22;9137;50.960;3.118;2023-06-22T03:00:18;17.60;99.90
18024;DHT22;9137;50.960;3.118;2023-06-22T03:02:48;17.70;99.90
18024;DHT22;9137;50.960;3.118;2023-06-22T03:05:15;17.70;99.90
18024;DHT22;9137;50.960;3.118;2023-06-22T03:07:44;17.70;99.90
18024;DHT22;9137;50.960;3.118;2023-06-22T03:10:13;17.70;99.90
18024;DHT22;9137;50.960;3.118;2023-06-22T03:12:41;17.60;99.90
18024;DHT22;9137;50.960;3.118;2023-06-22T03:15:10;17.60;99.90
18024;DHT22;9137;50.960;3.118;2023-06-22T03:17:38;17.60;99.90
18024;DHT22;9137;50.960;3.118;2023-06-22T03:20:07;17.60;99.90
18024;DHT22;9137;50.960;3.118;2023-06-22T03:22:36;17.60;99.90
18024;DHT22;9137;50.960;3.118;2023-06-22T03:25:04;17.50;99.90
18024;DHT22;9137;50.960;3.118;2023-06-22T03:27:36;17.50;99.90
18024;DHT22;9137;50.960;3.118;2023-06-22T03:30:04;17.50;99.90
18024;DHT22;9137;50.960;3.118;2023-06-22T03:32:31;17.50;99.90
18024;DHT22;9137;50.960;3.118;2023-06-22T03:34:58;17.50;99.90
18024;DHT22;9137;50.960;3.118;2023-06-22T03:37:25;17.60;99.90
18024;DHT22;9137;50.960;3.118;2023-06-22T03:39:52;17.50;99.90
18024;DHT22;9137;50.960;3.118;2023-06-22T03:42:19;17.60;99.90
18024;DHT22;9137;50.960;3.118;2023-06-22T03:44:47;17.60;99.90
18024;DHT22;9137;50.960;3.118;2023-06-22T03:47:14;17.60;99.90
18024;DHT22;9137;50.960;3.118;2023-06-22T03:49:41;17.60;99.90
18024;DHT22;9137;50.960;3.118;2023-06-22T03:52:08;17.60;99.90
18024;DHT22;9137;50.960;3.118;2023-06-22T03:54:36;17.70;99.90
18024;DHT22;9137;50.960;3.118;2023-06-22T03:57:03;17.60;99.90
18024;DHT22;9137;50.960;3.118;2023-06-22T03:59:30;17.60;99.90
18024;DHT22;9137;50.960;3.118;2023-06-22T04:01:59;17.60;99.90
18024;DHT22;9137;50.960;3.118;2023-06-22T04:04:26;17.60;99.90
18024;DHT22;9137;50.960;3.118;2023-06-22T04:06:53;17.70;99.90
18024;DHT22;9137;50.960;3.118;2023-06-22T04:09:20;17.70;99.90
18024;DHT22;9137;50.960;3.118;2023-06-22T04:11:48;17.70;99.90
18024;DHT22;9137;50.960;3.118;2023-06-22T04:14:15;17.70;99.90
18024;DHT22;9137;50.960;3.118;2023-06-22T04:16:41;17.70;99.90
18024;DHT22;9137;50.960;3.118;2023-06-22T04:19:10;17.60;99.90
18024;DHT22;9137;50.960;3.118;2023-06-22T04:21:42;17.60;99.90
18024;DHT22;9137;50.960;3.118;2023-06-22T04:24:08;17.70;99.90
18024;DHT22;9137;50.960;3.118;2023-06-22T04:26:35;17.70;99.90
18024;DHT22;9137;50.960;3.118;2023-06-22T04:29:03;17.80;99.90
18024;DHT22;9137;50.960;3.118;2023-06-22T04:31:31;17.80;99.90
18024;DHT22;9137;50.960;3.118;2023-06-22T04:34:02;17.80;99.90
18024;DHT22;9137;50.960;3.118;2023-06-22T04:36:36;17.80;99.90
18024;DHT22;9137;50.960;3.118;2023-06-22T04:39:05;17.90;99.90
18024;DHT22;9137;50.960;3.118;2023-06-22T04:41:32;17.90;99.90
18024;DHT22;9137;50.960;3.118;2023-06-22T04:44:08;18.00;99.90
18024;DHT22;9137;50.960;3.118;2023-06-22T04:46:36;18.00;99.90
18024;DHT22;9137;50.960;3.118;2023-06-22T04:49:05;18.00;99.90
18024;DHT22;9137;50.960;3.118;2023-06-22T04:51:39;18.10;99.90
18024;DHT22;9137;50.960;3.118;2023-06-22T04:54:07;18.10;99.90
18024;DHT22;9137;50.960;3.118;2023-06-22T04:56:34;18.20;99.90
18024;DHT22;9137;50.960;3.118;2023-06-22T04:59:02;18.20;99.90
18024;DHT22;9137;50.960;3.118;2023-06-22T05:01:29;18.30;99.90
18024;DHT22;9137;50.960;3.118;2023-06-22T05:03:57;18.30;99.90
18024;DHT22;9137;50.960;3.118;2023-06-22T05:06:27;18.30;99.90
18024;DHT22;9137;50.960;3.118;2023-06-22T05:09:08;18.40;99.90
18024;DHT22;9137;50.960;3.118;2023-06-22T05:11:43;18.40;99.90
18024;DHT22;9137;50.960;3.118;2023-06-22T05:14:10;18.40;99.90
18024;DHT22;9137;50.960;3.118;2023-06-22T05:16:38;18.30;99.90
18024;DHT22;9137;50.960;3.118;2023-06-22T05:19:05;18.40;99.50
18024;DHT22;9137;50.960;3.118;2023-06-22T05:21:32;18.40;99.60
18024;DHT22;9137;50.960;3.118;2023-06-22T05:23:59;18.40;99.70
18024;DHT22;9137;50.960;3.118;2023-06-22T05:26:30;18.40;99.60
18024;DHT22;9137;50.960;3.118;2023-06-22T05:28:57;18.30;99.90
18024;DHT22;9137;50.960;3.118;2023-06-22T05:31:24;18.40;99.90
18024;DHT22;9137;50.960;3.118;2023-06-22T05:33:52;18.40;99.90
18024;DHT22;9137;50.960;3.118;2023-06-22T05:36:20;18.50;99.90
18024;DHT22;9137;50.960;3.118;2023-06-22T05:38:51;18.50;99.90
18024;DHT22;9137;50.960;3.118;2023-06-22T05:41:18;18.50;99.90
18024;DHT22;9137;50.960;3.118;2023-06-22T05:43:46;18.50;99.90
18024;DHT22;9137;50.960;3.118;2023-06-22T05:46:13;18.60;99.90
18024;DHT22;9137;50.960;3.118;2023-06-22T05:48:40;18.60;99.90
18024;DHT22;9137;50.960;3.118;2023-06-22T05:51:07;18.70;99.80
18024;DHT22;9137;50.960;3.118;2023-06-22T05:53:34;18.70;99.90
18024;DHT22;9137;50.960;3.118;2023-06-22T05:56:01;18.70;99.90
18024;DHT22;9137;50.960;3.118;2023-06-22T05:58:27;18.80;99.80
18024;DHT22;9137;50.960;3.118;2023-06-22T06:00:56;18.80;99.90
18024;DHT22;9137;50.960;3.118;2023-06-22T06:03:23;18.90;99.80
18024;DHT22;9137;50.960;3.118;2023-06-22T06:05:50;19.00;99.60
18024;DHT22;9137;50.960;3.118;2023-06-22T06:08:16;19.00;99.70
18024;DHT22;9137;50.960;3.118;2023-06-22T06:10:43;19.10;99.90
18024;DHT22;9137;50.960;3.118;2023-06-22T06:13:10;19.20;99.90
18024;DHT22;9137;50.960;3.118;2023-06-22T06:15:37;19.20;99.50
18024;DHT22;9137;50.960;3.118;2023-06-22T06:18:06;19.30;99.10
18024;DHT22;9137;50.960;3.118;2023-06-22T06:20:32;19.40;99.20
18024;DHT22;9137;50.960;3.118;2023-06-22T06:22:59;19.50;99.30
18024;DHT22;9137;50.960;3.118;2023-06-22T06:25:27;19.50;99.10
18024;DHT22;9137;50.960;3.118;2023-06-22T06:27:59;19.60;99.40
18024;DHT22;9137;50.960;3.118;2023-06-22T06:30:26;19.70;99.00
18024;DHT22;9137;50.960;3.118;2023-06-22T06:32:52;19.70;98.70
18024;DHT22;9137;50.960;3.118;2023-06-22T06:35:21;19.80;98.90
18024;DHT22;9137;50.960;3.118;2023-06-22T06:37:49;19.80;98.10
18024;DHT22;9137;50.960;3.118;2023-06-22T06:40:17;19.80;98.70
18024;DHT22;9137;50.960;3.118;2023-06-22T06:42:45;19.90;98.80
18024;DHT22;9137;50.960;3.118;2023-06-22T06:45:15;20.00;98.40
18024;DHT22;9137;50.960;3.118;2023-06-22T06:47:42;20.00;98.70
18024;DHT22;9137;50.960;3.118;2023-06-22T06:50:11;20.10;97.90
18024;DHT22;9137;50.960;3.118;2023-06-22T06:52:40;20.20;98.30
18024;DHT22;9137;50.960;3.118;2023-06-22T06:55:08;20.30;98.90
18024;DHT22;9137;50.960;3.118;2023-06-22T06:57:37;20.30;97.40
18024;DHT22;9137;50.960;3.118;2023-06-22T07:00:05;20.40;97.90
18024;DHT22;9137;50.960;3.118;2023-06-22T07:02:38;20.60;98.20
18024;DHT22;9137;50.960;3.118;2023-06-22T07:05:05;20.70;97.70
18024;DHT22;9137;50.960;3.118;2023-06-22T07:07:33;20.80;97.40
18024;DHT22;9137;50.960;3.118;2023-06-22T07:10:01;20.90;97.80
18024;DHT22;9137;50.960;3.118;2023-06-22T07:12:29;21.00;97.30
18024;DHT22;9137;50.960;3.118;2023-06-22T07:15:01;21.10;97.40
18024;DHT22;9137;50.960;3.118;2023-06-22T07:17:29;21.20;96.80
18024;DHT22;9137;50.960;3.118;2023-06-22T07:19:56;21.30;96.30
18024;DHT22;9137;50.960;3.118;2023-06-22T07:22:22;21.30;96.30
18024;DHT22;9137;50.960;3.118;2023-06-22T07:24:49;21.40;95.60
18024;DHT22;9137;50.960;3.118;2023-06-22T07:27:18;21.40;95.40
18024;DHT22;9137;50.960;3.118;2023-06-22T07:29:45;21.50;96.40
18024;DHT22;9137;50.960;3.118;2023-06-22T07:32:12;21.50;96.10
18024;DHT22;9137;50.960;3.118;2023-06-22T07:34:39;21.50;95.50
18024;DHT22;9137;50.960;3.118;2023-06-22T07:37:07;21.50;95.50
18024;DHT22;9137;50.960;3.118;2023-06-22T07:39:33;21.50;95.90
18024;DHT22;9137;50.960;3.118;2023-06-22T07:42:00;21.50;95.60
18024;DHT22;9137;50.960;3.118;2023-06-22T07:44:29;21.50;95.00
18024;DHT22;9137;50.960;3.118;2023-06-22T07:46:56;21.50;95.60
18024;DHT22;9137;50.960;3.118;2023-06-22T07:49:22;21.60;95.90
18024;DHT22;9137;50.960;3.118;2023-06-22T07:51:49;21.60;95.80
18024;DHT22;9137;50.960;3.118;2023-06-22T07:54:16;21.70;95.30
18024;DHT22;9137;50.960;3.118;2023-06-22T07:56:43;21.80;95.20
18024;DHT22;9137;50.960;3.118;2023-06-22T07:59:10;21.90;95.50
18024;DHT22;9137;50.960;3.118;2023-06-22T08:01:38;22.00;95.70
18024;DHT22;9137;50.960;3.118;2023-06-22T08:04:05;22.00;95.70
18024;DHT22;9137;50.960;3.118;2023-06-22T08:06:32;22.10;94.60
18024;DHT22;9137;50.960;3.118;2023-06-22T08:08:59;22.00;94.30
18024;DHT22;9137;50.960;3.118;2023-06-22T08:11:26;22.10;94.40
18024;DHT22;9137;50.960;3.118;2023-06-22T08:13:53;22.10;95.00
18024;DHT22;9137;50.960;3.118;2023-06-22T08:16:21;22.20;95.60
18024;DHT22;9137;50.960;3.118;2023-06-22T08:18:49;22.30;94.90
18024;DHT22;9137;50.960;3.118;2023-06-22T08:21:16;22.30;94.70
18024;DHT22;9137;50.960;3.118;2023-06-22T08:23:43;22.30;93.80
18024;DHT22;9137;50.960;3.118;2023-06-22T08:26:10;22.40;94.60
18024;DHT22;9137;50.960;3.118;2023-06-22T08:28:37;22.50;95.50
18024;DHT22;9137;50.960;3.118;2023-06-22T08:31:04;22.60;95.50
18024;DHT22;9137;50.960;3.118;2023-06-22T08:33:31;22.70;93.90
18024;DHT22;9137;50.960;3.118;2023-06-22T08:35:59;22.80;93.80
18024;DHT22;9137;50.960;3.118;2023-06-22T08:38:26;22.70;93.10
18024;DHT22;9137;50.960;3.118;2023-06-22T08:40:53;22.70;93.60
18024;DHT22;9137;50.960;3.118;2023-06-22T08:43:20;22.60;92.70
18024;DHT22;9137;50.960;3.118;2023-06-22T08:45:47;22.60;94.00
18024;DHT22;9137;50.960;3.118;2023-06-22T08:48:14;22.60;93.70
18024;DHT22;9137;50.960;3.118;2023-06-22T08:50:41;22.60;93.60
18024;DHT22;9137;50.960;3.118;2023-06-22T08:53:09;22.60;94.00
18024;DHT22;9137;50.960;3.118;2023-06-22T08:55:36;22.60;93.70
18024;DHT22;9137;50.960;3.118;2023-06-22T08:58:03;22.50;94.20
18024;DHT22;9137;50.960;3.118;2023-06-22T09:00:30;22.60;94.60
18024;DHT22;9137;50.960;3.118;2023-06-22T09:03:00;22.60;93.70
18024;DHT22;9137;50.960;3.118;2023-06-22T09:05:27;22.60;93.60
18024;DHT22;9137;50.960;3.118;2023-06-22T09:07:55;22.70;94.60
18024;DHT22;9137;50.960;3.118;2023-06-22T09:10:25;22.70;93.20
18024;DHT22;9137;50.960;3.118;2023-06-22T09:12:52;22.70;93.60
18024;DHT22;9137;50.960;3.118;2023-06-22T09:15:19;22.70;93.90
18024;DHT22;9137;50.960;3.118;2023-06-22T09:17:46;22.70;93.60
18024;DHT22;9137;50.960;3.118;2023-06-22T09:20:13;22.70;94.00
18024;DHT22;9137;50.960;3.118;2023-06-22T09:22:41;22.70;92.90
18024;DHT22;9137;50.960;3.118;2023-06-22T09:25:08;22.70;93.60
18024;DHT22;9137;50.960;3.118;2023-06-22T09:27:37;22.70;94.20
18024;DHT22;9137;50.960;3.118;2023-06-22T09:30:05;22.70;94.70
18024;DHT22;9137;50.960;3.118;2023-06-22T09:32:32;22.70;94.80
18024;DHT22;9137;50.960;3.118;2023-06-22T09:35:02;22.70;93.80
18024;DHT22;9137;50.960;3.118;2023-06-22T09:37:28;22.70;94.20
18024;DHT22;9137;50.960;3.118;2023-06-22T09:39:55;22.80;93.90
18024;DHT22;9137;50.960;3.118;2023-06-22T09:42:22;22.80;94.00
18024;DHT22;9137;50.960;3.118;2023-06-22T09:44:50;22.70;94.50
18024;DHT22;9137;50.960;3.118;2023-06-22T09:47:17;22.80;93.90
18024;DHT22;9137;50.960;3.118;2023-06-22T09:49:44;22.80;94.10
18024;DHT22;9137;50.960;3.118;2023-06-22T09:52:11;22.80;95.00
18024;DHT22;9137;50.960;3.118;2023-06-22T09:54:38;22.90;94.20
18024;DHT22;9137;50.960;3.118;2023-06-22T09:57:05;22.80;94.30
18024;DHT22;9137;50.960;3.118;2023-06-22T09:59:32;22.90;94.50
18024;DHT22;9137;50.960;3.118;2023-06-22T10:02:00;22.90;93.70
18024;DHT22;9137;50.960;3.118;2023-06-22T10:04:29;22.90;94.00
18024;DHT22;9137;50.960;3.118;2023-06-22T10:06:56;22.80;93.60
18024;DHT22;9137;50.960;3.118;2023-06-22T10:09:23;22.80;93.60
18024;DHT22;9137;50.960;3.118;2023-06-22T10:11:50;22.90;93.80
18024;DHT22;9137;50.960;3.118;2023-06-22T10:14:17;22.90;93.60
18024;DHT22;9137;50.960;3.118;2023-06-22T10:16:44;22.80;92.50
18024;DHT22;9137;50.960;3.118;2023-06-22T10:19:12;22.80;93.20
18024;DHT22;9137;50.960;3.118;2023-06-22T10:21:39;22.80;92.80
18024;DHT22;9137;50.960;3.118;2023-06-22T10:24:06;22.80;93.40
18024;DHT22;9137;50.960;3.118;2023-06-22T10:26:34;22.70;92.80
18024;DHT22;9137;50.960;3.118;2023-06-22T10:29:02;22.70;93.00
18024;DHT22;9137;50.960;3.118;2023-06-22T10:31:29;22.80;93.60
18024;DHT22;9137;50.960;3.118;2023-06-22T10:33:56;22.80;93.30
18024;DHT22;9137;50.960;3.118;2023-06-22T10:36:24;22.80;92.60
18024;DHT22;9137;50.960;3.118;2023-06-22T10:38:51;22.80;92.80
18024;DHT22;9137;50.960;3.118;2023-06-22T10:41:19;22.80;92.10
18024;DHT22;9137;50.960;3.118;2023-06-22T10:43:45;22.70;92.70
18024;DHT22;9137;50.960;3.118;2023-06-22T10:46:12;22.70;92.10
18024;DHT22;9137;50.960;3.118;2023-06-22T10:48:39;22.70;92.70
18024;DHT22;9137;50.960;3.118;2023-06-22T10:51:06;22.70;93.00
18024;DHT22;9137;50.960;3.118;2023-06-22T10:53:38;22.60;93.30
18024;DHT22;9137;50.960;3.118;2023-06-22T10:56:05;22.60;93.40
18024;DHT22;9137;50.960;3.118;2023-06-22T10:58:31;22.60;94.40
18024;DHT22;9137;50.960;3.118;2023-06-22T11:00:58;22.60;94.20
18024;DHT22;9137;50.960;3.118;2023-06-22T11:03:25;22.60;93.20
18024;DHT22;9137;50.960;3.118;2023-06-22T11:05:52;22.60;93.30
18024;DHT22;9137;50.960;3.118;2023-06-22T11:08:19;22.60;93.90
18024;DHT22;9137;50.960;3.118;2023-06-22T11:10:47;22.50;93.80
18024;DHT22;9137;50.960;3.118;2023-06-22T11:13:14;22.50;94.10
18024;DHT22;9137;50.960;3.118;2023-06-22T11:15:41;22.60;94.60
18024;DHT22;9137;50.960;3.118;2023-06-22T11:18:08;22.60;94.40
18024;DHT22;9137;50.960;3.118;2023-06-22T11:20:35;22.50;94.50
18024;DHT22;9137;50.960;3.118;2023-06-22T11:23:04;22.50;94.60
18024;DHT22;9137;50.960;3.118;2023-06-22T11:25:32;22.50;94.90
18024;DHT22;9137;50.960;3.118;2023-06-22T11:28:02;22.50;95.90
18024;DHT22;9137;50.960;3.118;2023-06-22T11:30:29;22.50;95.30
18024;DHT22;9137;50.960;3.118;2023-06-22T11:32:56;22.50;95.80
18024;DHT22;9137;50.960;3.118;2023-06-22T11:35:23;22.40;95.80
18024;DHT22;9137;50.960;3.118;2023-06-22T11:37:50;22.50;95.60
18024;DHT22;9137;50.960;3.118;2023-06-22T11:40:17;22.40;94.60
18024;DHT22;9137;50.960;3.118;2023-06-22T11:42:44;22.40;94.80
18024;DHT22;9137;50.960;3.118;2023-06-22T11:45:12;22.40;94.90
18024;DHT22;9137;50.960;3.118;2023-06-22T11:47:39;22.40;95.10
18024;DHT22;9137;50.960;3.118;2023-06-22T11:50:07;22.40;95.50
18024;DHT22;9137;50.960;3.118;2023-06-22T11:52:34;22.40;95.50
18024;DHT22;9137;50.960;3.118;2023-06-22T11:55:02;22.30;95.20
18024;DHT22;9137;50.960;3.118;2023-06-22T11:57:33;22.40;96.00
18024;DHT22;9137;50.960;3.118;2023-06-22T12:00:00;22.40;95.60
18024;DHT22;9137;50.960;3.118;2023-06-22T12:02:28;22.40;95.40
18024;DHT22;9137;50.960;3.118;2023-06-22T12:04:55;22.40;95.20
18024;DHT22;9137;50.960;3.118;2023-06-22T12:07:23;22.40;95.30
18024;DHT22;9137;50.960;3.118;2023-06-22T12:09:50;22.40;94.90
18024;DHT22;9137;50.960;3.118;2023-06-22T12:12:17;22.50;95.50
18024;DHT22;9137;50.960;3.118;2023-06-22T12:14:44;22.60;94.50
18024;DHT22;9137;50.960;3.118;2023-06-22T12:17:12;22.60;95.20
18024;DHT22;9137;50.960;3.118;2023-06-22T12:19:40;22.60;95.00
18024;DHT22;9137;50.960;3.118;2023-06-22T12:22:07;22.60;95.00
18024;DHT22;9137;50.960;3.118;2023-06-22T12:24:34;22.60;95.50
18024;DHT22;9137;50.960;3.118;2023-06-22T12:27:01;22.70;95.30
18024;DHT22;9137;50.960;3.118;2023-06-22T12:29:28;22.70;95.30
18024;DHT22;9137;50.960;3.118;2023-06-22T12:31:55;22.60;96.00
18024;DHT22;9137;50.960;3.118;2023-06-22T12:34:22;22.70;95.90
18024;DHT22;9137;50.960;3.118;2023-06-22T12:36:50;22.70;95.80
18024;DHT22;9137;50.960;3.118;2023-06-22T12:39:20;22.70;95.80
18024;DHT22;9137;50.960;3.118;2023-06-22T12:41:47;22.60;96.00
18024;DHT22;9137;50.960;3.118;2023-06-22T12:44:14;22.70;96.40
18024;DHT22;9137;50.960;3.118;2023-06-22T12:46:41;22.70;96.10
18024;DHT22;9137;50.960;3.118;2023-06-22T12:49:07;22.70;96.00
18024;DHT22;9137;50.960;3.118;2023-06-22T12:51:39;22.80;97.40
18024;DHT22;9137;50.960;3.118;2023-06-22T12:54:09;22.80;96.80
18024;DHT22;9137;50.960;3.118;2023-06-22T12:56:37;22.80;97.30
18024;DHT22;9137;50.960;3.118;2023-06-22T12:59:04;22.80;98.00
18024;DHT22;9137;50.960;3.118;2023-06-22T13:01:31;22.80;97.90
18024;DHT22;9137;50.960;3.118;2023-06-22T13:03:59;22.70;97.90
18024;DHT22;9137;50.960;3.118;2023-06-22T13:06:26;22.60;97.80
18024;DHT22;9137;50.960;3.118;2023-06-22T13:08:53;22.60;97.30
18024;DHT22;9137;50.960;3.118;2023-06-22T13:11:21;22.60;97.80
18024;DHT22;9137;50.960;3.118;2023-06-22T13:13:48;22.60;97.70
18024;DHT22;9137;50.960;3.118;2023-06-22T13:16:15;22.70;97.90
18024;DHT22;9137;50.960;3.118;2023-06-22T13:18:42;22.70;97.00
18024;DHT22;9137;50.960;3.118;2023-06-22T13:21:09;22.70;96.60
18024;DHT22;9137;50.960;3.118;2023-06-22T13:23:35;22.70;95.80
18024;DHT22;9137;50.960;3.118;2023-06-22T13:26:02;22.70;95.50
18024;DHT22;9137;50.960;3.118;2023-06-22T13:28:31;22.70;95.60
18024;DHT22;9137;50.960;3.118;2023-06-22T13:30:58;22.70;95.20
18024;DHT22;9137;50.960;3.118;2023-06-22T13:33:24;22.70;94.60
18024;DHT22;9137;50.960;3.118;2023-06-22T13:35:51;22.70;92.80
18024;DHT22;9137;50.960;3.118;2023-06-22T13:38:18;22.70;93.20
18024;DHT22;9137;50.960;3.118;2023-06-22T13:40:45;22.70;93.40
18024;DHT22;9137;50.960;3.118;2023-06-22T13:43:13;22.80;93.00
18024;DHT22;9137;50.960;3.118;2023-06-22T13:45:42;22.90;92.90
18024;DHT22;9137;50.960;3.118;2023-06-22T13:48:09;23.00;92.70
18024;DHT22;9137;50.960;3.118;2023-06-22T13:50:36;23.00;92.60
18024;DHT22;9137;50.960;3.118;2023-06-22T13:53:03;23.00;91.60
18024;DHT22;9137;50.960;3.118;2023-06-22T13:55:30;23.00;91.80
18024;DHT22;9137;50.960;3.118;2023-06-22T13:57:57;23.10;91.40
18024;DHT22;9137;50.960;3.118;2023-06-22T14:00:24;23.30;90.80
18024;DHT22;9137;50.960;3.118;2023-06-22T14:02:52;23.30;91.00
18024;DHT22;9137;50.960;3.118;2023-06-22T14:05:19;23.40;92.20
18024;DHT22;9137;50.960;3.118;2023-06-22T14:07:46;23.70;92.00
18024;DHT22;9137;50.960;3.118;2023-06-22T14:10:13;23.70;90.60
18024;DHT22;9137;50.960;3.118;2023-06-22T14:12:40;23.60;85.90
18024;DHT22;9137;50.960;3.118;2023-06-22T14:15:07;23.40;87.00
18024;DHT22;9137;50.960;3.118;2023-06-22T14:17:34;23.30;86.70
18024;DHT22;9137;50.960;3.118;2023-06-22T14:20:03;23.30;86.70
18024;DHT22;9137;50.960;3.118;2023-06-22T14:22:31;23.30;85.30
18024;DHT22;9137;50.960;3.118;2023-06-22T14:24:58;23.30;85.70
18024;DHT22;9137;50.960;3.118;2023-06-22T14:27:25;23.40;86.50
18024;DHT22;9137;50.960;3.118;2023-06-22T14:29:51;23.50;85.10
18024;DHT22;9137;50.960;3.118;2023-06-22T14:32:18;23.40;85.80
18024;DHT22;9137;50.960;3.118;2023-06-22T14:34:45;23.30;82.40
18024;DHT22;9137;50.960;3.118;2023-06-22T14:37:13;23.20;82.40
18024;DHT22;9137;50.960;3.118;2023-06-22T14:39:41;23.20;84.80
18024;DHT22;9137;50.960;3.118;2023-06-22T14:42:09;23.20;85.80
18024;DHT22;9137;50.960;3.118;2023-06-22T14:44:35;23.20;88.70
18024;DHT22;9137;50.960;3.118;2023-06-22T14:47:02;23.30;85.40
18024;DHT22;9137;50.960;3.118;2023-06-22T14:49:29;23.40;86.80
18024;DHT22;9137;50.960;3.118;2023-06-22T14:51:56;23.30;85.80
18024;DHT22;9137;50.960;3.118;2023-06-22T14:54:24;23.40;87.80
18024;DHT22;9137;50.960;3.118;2023-06-22T14:56:51;23.30;85.00
18024;DHT22;9137;50.960;3.118;2023-06-22T14:59:18;23.30;84.30
18024;DHT22;9137;50.960;3.118;2023-06-22T15:01:45;23.20;84.80
18024;DHT22;9137;50.960;3.118;2023-06-22T15:04:12;23.10;85.90
18024;DHT22;9137;50.960;3.118;2023-06-22T15:06:39;23.10;86.60
18024;DHT22;9137;50.960;3.118;2023-06-22T15:09:06;23.10;85.30
18024;DHT22;9137;50.960;3.118;2023-06-22T15:11:34;23.10;88.00
18024;DHT22;9137;50.960;3.118;2023-06-22T15:14:01;23.20;88.60
18024;DHT22;9137;50.960;3.118;2023-06-22T15:16:28;23.20;87.10
18024;DHT22;9137;50.960;3.118;2023-06-22T15:18:55;23.10;87.20
18024;DHT22;9137;50.960;3.118;2023-06-22T15:21:22;23.10;84.10
18024;DHT22;9137;50.960;3.118;2023-06-22T15:23:49;23.00;85.50
18024;DHT22;9137;50.960;3.118;2023-06-22T15:26:15;23.00;85.90
18024;DHT22;9137;50.960;3.118;2023-06-22T15:28:44;23.00;86.00
18024;DHT22;9137;50.960;3.118;2023-06-22T15:31:11;23.10;84.30
18024;DHT22;9137;50.960;3.118;2023-06-22T15:33:38;23.10;82.50
18024;DHT22;9137;50.960;3.118;2023-06-22T15:36:05;23.10;81.20
18024;DHT22;9137;50.960;3.118;2023-06-22T15:38:32;23.10;82.60
18024;DHT22;9137;50.960;3.118;2023-06-22T15:40:59;23.00;84.50
18024;DHT22;9137;50.960;3.118;2023-06-22T15:43:26;23.00;80.80
18024;DHT22;9137;50.960;3.118;2023-06-22T15:45:55;22.90;80.90
18024;DHT22;9137;50.960;3.118;2023-06-22T15:48:22;22.90;81.80